Time;durP1;ratioP1;P1;durP2;ratioP2;P2;SDS_P1;SDS_P2;PMS_P1;PMS_P2;Temp;Humidity;BMP_temperature;BMP_pressure;BME280_temperature;BME280_humidity;BME280_pressure;Samples;Min_cycle;Max_cycle;Signal;HPM_P1;HPM_P2
2023/05/05 00:00:53;;;;;;;0.10;0.10;;;15.90;99.90;;;;;;5077078;28;20242;-82
2023/05/05 00:03:23;;;;;;;0.10;0.10;;;15.80;99.90;;;;;;5078525;28;20209;-82
2023/05/05 00:05:49;;;;;;;0.10;0.10;;;15.60;99.90;;;;;;5076895;28;20678;-82
2023/05/05 00:08:17;;;;;;;0.10;0.10;;;15.50;99.90;;;;;;5075517;28;20225;-82
2023/05/05 00:10:47;;;;;;;0.10;0.10;;;15.40;99.90;;;;;;5077461;28;20212;-81
2023/05/05 00:13:13;;;;;;;0.10;0.10;;;15.60;99.90;;;;;;5076129;28;20705;-82
2023/05/05 00:15:44;;;;;;;0.10;0.10;;;15.40;99.90;;;;;;5075776;28;20192;-81
2023/05/05 00:18:10;;;;;;;0.10;0.10;;;15.30;99.90;;;;;;5076995;28;20188;-82
2023/05/05 00:20:36;;;;;;;0.10;0.10;;;15.20;99.90;;;;;;5074959;28;20617;-81
2023/05/05 00:23:02;;;;;;;0.10;0.10;;;15.30;99.90;;;;;;5074270;28;20197;-82
2023/05/05 00:25:28;;;;;;;0.10;0.10;;;15.50;99.90;;;;;;5076014;28;20186;-82
2023/05/05 00:27:54;;;;;;;0.10;0.10;;;15.60;99.90;;;;;;5074141;28;20243;-82
2023/05/05 00:30:19;;;;;;;0.10;0.10;;;15.60;99.90;;;;;;5072863;28;20753;-82
2023/05/05 00:32:49;;;;;;;0.10;0.10;;;15.70;99.90;;;;;;5074846;28;20273;-82
2023/05/05 00:35:15;;;;;;;0.10;0.10;;;15.70;99.90;;;;;;5076386;28;20181;-82
2023/05/05 00:37:41;;;;;;;0.10;0.10;;;15.50;99.90;;;;;;5077238;28;20180;-82
2023/05/05 00:40:08;;;;;;;0.10;0.10;;;15.40;99.90;;;;;;5075698;28;20205;-82
2023/05/05 00:42:45;;;;;;;0.10;0.10;;;15.30;99.90;;;;;;5074877;28;20277;-82
2023/05/05 00:45:15;;;;;;;0.10;0.10;;;15.20;99.90;;;;;;5074914;28;20184;-82
2023/05/05 00:47:43;;;;;;;0.10;0.10;;;15.10;99.90;;;;;;5074211;28;20212;-82
2023/05/05 00:50:10;;;;;;;0.10;0.10;;;15.00;99.90;;;;;;5072690;28;20226;-81
2023/05/05 00:52:36;;;;;;;0.10;0.10;;;15.00;99.90;;;;;;5086187;28;20177;-81
2023/05/05 00:55:03;;;;;;;0.10;0.10;;;14.90;99.90;;;;;;5068180;28;20176;-81
2023/05/05 00:57:29;;;;;;;0.10;0.10;;;14.80;99.90;;;;;;5071780;28;20847;-81
2023/05/05 00:59:56;;;;;;;0.10;0.10;;;14.80;99.90;;;;;;5071579;28;20200;-81
2023/05/05 01:02:21;;;;;;;0.10;0.10;;;14.70;99.90;;;;;;5067678;28;20184;-81
2023/05/05 01:04:47;;;;;;;0.10;0.10;;;14.70;99.90;;;;;;5071037;28;20193;-81
2023/05/05 01:07:39;;;;;;;0.10;0.10;;;14.70;99.90;;;;;;5069195;28;20646;-81
2023/05/05 01:10:09;;;;;;;0.10;0.10;;;14.60;99.90;;;;;;5070070;28;20238;-81
2023/05/05 01:12:53;;;;;;;0.00;0.00;;;14.50;99.90;;;;;;5073062;28;20180;-81
2023/05/05 01:15:46;;;;;;;0.10;0.10;;;14.40;99.90;;;;;;5072361;28;20181;-81
2023/05/05 01:18:33;;;;;;;0.10;0.10;;;14.40;99.90;;;;;;5074270;28;20200;-81
2023/05/05 01:21:25;;;;;;;0.10;0.10;;;14.40;99.90;;;;;;5075299;28;20252;-81
2023/05/05 01:24:09;;;;;;;0.10;0.10;;;14.50;99.90;;;;;;5073710;28;20184;-81
2023/05/05 01:27:00;;;;;;;0.10;0.10;;;14.70;99.90;;;;;;5073112;28;20213;-81
2023/05/05 01:29:59;;;;;;;0.10;0.10;;;14.90;99.90;;;;;;5072844;28;21192;-81
2023/05/05 01:32:28;;;;;;;0.10;0.10;;;15.00;99.90;;;;;;5071106;28;20602;-81
2023/05/05 01:35:28;;;;;;;0.10;0.10;;;15.10;99.90;;;;;;5074609;28;20187;-81
2023/05/05 01:38:07;;;;;;;0.10;0.10;;;15.20;99.90;;;;;;5072884;28;20195;-81
2023/05/05 01:40:39;;;;;;;0.10;0.10;;;15.10;99.90;;;;;;5072181;28;20272;-81
2023/05/05 01:43:07;;;;;;;0.10;0.10;;;15.10;99.90;;;;;;5073116;28;20251;-81
2023/05/05 01:45:36;;;;;;;0.10;0.10;;;15.10;99.90;;;;;;5072803;28;20192;-81
2023/05/05 01:48:05;;;;;;;0.10;0.10;;;15.00;99.90;;;;;;5069559;28;21317;-81
2023/05/05 01:50:31;;;;;;;0.10;0.10;;;15.00;99.90;;;;;;5070857;28;20209;-81
2023/05/05 01:52:57;;;;;;;0.10;0.10;;;14.90;99.90;;;;;;5071688;28;20213;-81
2023/05/05 01:55:25;;;;;;;0.10;0.10;;;14.80;99.90;;;;;;5076114;28;20184;-81
2023/05/05 01:57:51;;;;;;;0.10;0.10;;;14.70;99.90;;;;;;5072045;28;20181;-81
2023/05/05 02:00:18;;;;;;;0.10;0.10;;;14.80;99.90;;;;;;5077754;28;20662;-81
2023/05/05 02:02:46;;;;;;;0.10;0.10;;;14.90;99.90;;;;;;5075766;28;20209;-81
2023/05/05 02:05:12;;;;;;;0.10;0.10;;;14.90;99.90;;;;;;5075620;28;20548;-81
2023/05/05 02:07:38;;;;;;;0.10;0.10;;;14.60;99.90;;;;;;5075093;28;20204;-81
2023/05/05 02:10:05;;;;;;;0.10;0.10;;;14.70;99.90;;;;;;5076474;28;20204;-81
2023/05/05 02:12:34;;;;;;;0.10;0.10;;;14.80;99.90;;;;;;5075277;28;20189;-81
2023/05/05 02:15:01;;;;;;;0.10;0.10;;;14.90;99.90;;;;;;5074667;28;20227;-81
2023/05/05 02:17:29;;;;;;;0.10;0.10;;;15.00;99.90;;;;;;5074229;28;20689;-81
2023/05/05 02:19:57;;;;;;;0.10;0.10;;;15.00;99.90;;;;;;5074540;28;20619;-81
2023/05/05 02:22:23;;;;;;;0.10;0.10;;;15.00;99.90;;;;;;5071294;28;20223;-81
2023/05/05 02:24:48;;;;;;;0.10;0.10;;;15.00;99.90;;;;;;5073536;28;20212;-81
2023/05/05 02:27:17;;;;;;;0.10;0.10;;;14.80;99.90;;;;;;5069213;28;20201;-81
2023/05/05 02:29:50;;;;;;;0.10;0.10;;;14.60;99.90;;;;;;5073788;28;20654;-81
2023/05/05 02:32:22;;;;;;;0.10;0.10;;;14.50;99.90;;;;;;5071891;28;20173;-81
2023/05/05 02:34:49;;;;;;;0.10;0.10;;;14.60;99.90;;;;;;5074715;28;20184;-81
2023/05/05 02:37:26;;;;;;;0.10;0.10;;;14.70;99.90;;;;;;5071708;28;20184;-81
2023/05/05 02:39:57;;;;;;;0.10;0.10;;;14.80;99.90;;;;;;5074755;28;20200;-81
2023/05/05 02:42:27;;;;;;;0.10;0.10;;;14.80;99.90;;;;;;5072454;28;20192;-81
2023/05/05 02:44:56;;;;;;;0.10;0.10;;;14.80;99.90;;;;;;5074810;28;20238;-81
2023/05/05 02:47:26;;;;;;;0.10;0.10;;;14.80;99.90;;;;;;5072865;28;20201;-81
2023/05/05 02:49:52;;;;;;;0.10;0.10;;;14.80;99.90;;;;;;5074543;28;20217;-81
2023/05/05 02:52:18;;;;;;;0.10;0.10;;;14.80;99.90;;;;;;5071728;28;20236;-81
2023/05/05 02:54:43;;;;;;;0.10;0.10;;;14.80;99.90;;;;;;5072015;28;20188;-83
2023/05/05 02:57:11;;;;;;;0.10;0.10;;;14.70;99.90;;;;;;5075773;28;20201;-82
2023/05/05 02:59:57;;;;;;;0.10;0.10;;;14.80;99.90;;;;;;5073316;28;20581;-82
2023/05/05 03:02:57;;;;;;;0.10;0.10;;;14.80;99.90;;;;;;5071176;28;20196;-83
2023/05/05 03:05:28;;;;;;;0.10;0.10;;;14.80;99.90;;;;;;5073517;28;20194;-82
2023/05/05 03:08:01;;;;;;;0.10;0.10;;;14.80;99.90;;;;;;5072343;28;20315;-82
2023/05/05 03:10:38;;;;;;;0.10;0.10;;;14.80;99.90;;;;;;5073002;28;20205;-82
2023/05/05 03:13:08;;;;;;;0.10;0.10;;;14.70;99.90;;;;;;5070946;28;20188;-82
2023/05/05 03:15:40;;;;;;;0.10;0.10;;;14.80;99.90;;;;;;5070873;28;20237;-81
2023/05/05 03:18:07;;;;;;;0.10;0.10;;;14.90;99.90;;;;;;5072544;28;20188;-81
2023/05/05 03:20:33;;;;;;;0.10;0.10;;;14.70;99.90;;;;;;5070628;28;20571;-81
2023/05/05 03:23:01;;;;;;;0.10;0.10;;;14.50;99.90;;;;;;5072547;28;20245;-81
2023/05/05 03:25:42;;;;;;;0.10;0.10;;;14.30;99.90;;;;;;5071175;28;20219;-82
2023/05/05 03:28:08;;;;;;;0.10;0.10;;;14.30;99.90;;;;;;5071144;28;20210;-81
2023/05/05 03:30:33;;;;;;;0.10;0.10;;;14.40;99.90;;;;;;5071600;28;20212;-82
2023/05/05 03:32:59;;;;;;;0.10;0.10;;;14.40;99.90;;;;;;5072526;28;20217;-82
2023/05/05 03:35:24;;;;;;;0.10;0.10;;;14.30;99.90;;;;;;5072153;28;20222;-82
2023/05/05 03:37:50;;;;;;;0.10;0.10;;;14.30;99.90;;;;;;5071371;28;20282;-81
2023/05/05 03:40:16;;;;;;;0.10;0.10;;;14.30;99.90;;;;;;5073512;28;20211;-82
2023/05/05 03:42:41;;;;;;;0.10;0.10;;;14.30;99.90;;;;;;5072712;28;20185;-81
2023/05/05 03:45:07;;;;;;;0.10;0.10;;;14.30;99.90;;;;;;5072845;28;20220;-80
2023/05/05 03:47:33;;;;;;;0.10;0.10;;;14.10;99.90;;;;;;5070180;28;20254;-80
2023/05/05 03:49:59;;;;;;;0.10;0.10;;;14.10;99.90;;;;;;5075441;28;20202;-81
2023/05/05 03:52:25;;;;;;;0.10;0.10;;;14.10;99.90;;;;;;5070385;28;20183;-81
2023/05/05 03:54:50;;;;;;;0.10;0.10;;;14.10;99.90;;;;;;5074222;28;20653;-80
2023/05/05 03:57:16;;;;;;;0.10;0.10;;;14.20;99.90;;;;;;5071349;28;20230;-80
2023/05/05 03:59:41;;;;;;;0.10;0.10;;;14.20;99.90;;;;;;5072978;28;20580;-80
2023/05/05 04:02:07;;;;;;;0.10;0.10;;;14.20;99.90;;;;;;5069727;28;20185;-80
2023/05/05 04:04:33;;;;;;;0.10;0.10;;;14.20;99.90;;;;;;5074384;28;20204;-80
2023/05/05 04:06:58;;;;;;;0.10;0.10;;;14.20;99.90;;;;;;5071586;28;20200;-80
2023/05/05 04:09:24;;;;;;;0.10;0.10;;;14.20;99.90;;;;;;5071158;28;20225;-80
2023/05/05 04:11:49;;;;;;;0.10;0.10;;;14.20;99.90;;;;;;5071404;28;20211;-80
2023/05/05 04:14:15;;;;;;;0.10;0.10;;;14.20;99.90;;;;;;5074026;28;20172;-80
2023/05/05 04:16:41;;;;;;;0.10;0.10;;;14.20;99.90;;;;;;5068083;28;20302;-80
2023/05/05 04:19:06;;;;;;;0.10;0.10;;;14.20;99.90;;;;;;5072728;28;20220;-80
2023/05/05 04:21:32;;;;;;;0.10;0.10;;;14.20;99.90;;;;;;5072530;28;20184;-80
2023/05/05 04:23:57;;;;;;;0.10;0.10;;;14.30;99.90;;;;;;5070609;28;20179;-80
2023/05/05 04:26:23;;;;;;;0.10;0.10;;;14.50;99.90;;;;;;5068827;28;20215;-80
2023/05/05 04:28:48;;;;;;;0.10;0.10;;;14.60;99.90;;;;;;5074307;28;20210;-80
2023/05/05 04:31:14;;;;;;;0.10;0.10;;;14.70;99.90;;;;;;5071210;28;20263;-80
2023/05/05 04:33:39;;;;;;;0.10;0.10;;;14.70;99.90;;;;;;5070340;28;20187;-80
2023/05/05 04:36:05;;;;;;;0.10;0.10;;;14.80;99.90;;;;;;5070433;28;20669;-80
2023/05/05 04:38:31;;;;;;;0.10;0.10;;;14.90;99.90;;;;;;5069510;28;20196;-80
2023/05/05 04:40:56;;;;;;;0.10;0.10;;;15.00;99.90;;;;;;5063632;28;20680;-81
2023/05/05 04:43:22;;;;;;;0.10;0.10;;;15.00;99.90;;;;;;5068189;28;20193;-80
2023/05/05 04:45:52;;;;;;;0.10;0.10;;;15.10;99.90;;;;;;5077470;28;20191;-80
2023/05/05 04:48:19;;;;;;;0.10;0.10;;;15.10;99.90;;;;;;5073837;28;20216;-80
2023/05/05 04:50:45;;;;;;;0.10;0.10;;;15.20;99.90;;;;;;5069679;28;20204;-80
2023/05/05 04:53:11;;;;;;;0.10;0.10;;;14.90;99.90;;;;;;5071880;28;20177;-80
2023/05/05 04:55:38;;;;;;;0.10;0.10;;;14.80;99.90;;;;;;5073689;28;20188;-80
2023/05/05 04:58:03;;;;;;;0.10;0.10;;;14.90;99.90;;;;;;5071765;28;20192;-81
2023/05/05 05:00:29;;;;;;;0.10;0.10;;;15.00;99.90;;;;;;5069920;28;20201;-81
2023/05/05 05:02:55;;;;;;;0.10;0.10;;;15.20;99.90;;;;;;5066592;28;20526;-81
2023/05/05 05:05:20;;;;;;;0.10;0.10;;;15.20;99.90;;;;;;5070762;28;20188;-80
2023/05/05 05:07:46;;;;;;;0.10;0.10;;;15.20;99.90;;;;;;5068828;28;20207;-81
2023/05/05 05:10:12;;;;;;;0.10;0.10;;;15.30;99.90;;;;;;5068943;28;20203;-83
2023/05/05 05:12:37;;;;;;;0.10;0.10;;;15.30;99.90;;;;;;5069541;28;20192;-83
2023/05/05 05:15:03;;;;;;;0.10;0.10;;;15.40;99.90;;;;;;5072675;28;20557;-82
2023/05/05 05:17:29;;;;;;;0.10;0.10;;;15.50;99.90;;;;;;5069186;28;20214;-83
2023/05/05 05:19:55;;;;;;;0.10;0.10;;;15.50;99.90;;;;;;5069267;28;20694;-83
2023/05/05 05:22:21;;;;;;;0.10;0.10;;;15.60;99.90;;;;;;5068110;28;20211;-81
2023/05/05 05:24:47;;;;;;;0.10;0.10;;;15.70;99.90;;;;;;5066813;28;20215;-81
2023/05/05 05:27:12;;;;;;;0.10;0.10;;;15.70;99.90;;;;;;5069926;28;20760;-82
2023/05/05 05:29:38;;;;;;;0.10;0.10;;;15.80;99.90;;;;;;5075862;28;20210;-82
2023/05/05 05:32:04;;;;;;;0.10;0.10;;;15.80;99.90;;;;;;5075796;28;20181;-82
2023/05/05 05:34:29;;;;;;;0.10;0.10;;;15.90;99.90;;;;;;5075719;28;20237;-81
2023/05/05 05:36:55;;;;;;;0.10;0.10;;;15.80;99.90;;;;;;5078384;28;20189;-81
2023/05/05 05:39:20;;;;;;;0.10;0.10;;;15.80;99.90;;;;;;5073916;28;20577;-82
2023/05/05 05:41:46;;;;;;;0.10;0.10;;;15.90;99.90;;;;;;5076483;28;20480;-81
2023/05/05 05:44:11;;;;;;;0.10;0.10;;;15.90;99.90;;;;;;5077794;28;20193;-82
2023/05/05 05:46:37;;;;;;;0.10;0.10;;;16.00;99.90;;;;;;5077256;28;20192;-81
2023/05/05 05:49:02;;;;;;;0.10;0.10;;;15.90;99.90;;;;;;5078839;28;20203;-81
2023/05/05 05:51:29;;;;;;;0.10;0.10;;;16.00;99.90;;;;;;5078132;28;20667;-81
2023/05/05 05:53:55;;;;;;;0.10;0.10;;;16.10;99.90;;;;;;5078160;28;20544;-81
2023/05/05 05:56:20;;;;;;;0.03;0.03;;;16.10;99.90;;;;;;5075726;28;20184;-81
2023/05/05 05:58:47;;;;;;;0.10;0.10;;;16.20;99.90;;;;;;5079122;28;20651;-82
2023/05/05 06:01:13;;;;;;;0.10;0.10;;;16.30;99.90;;;;;;5074962;28;20196;-81
2023/05/05 06:03:38;;;;;;;0.10;0.10;;;16.40;99.90;;;;;;5072022;28;20200;-81
2023/05/05 06:06:04;;;;;;;0.10;0.10;;;16.60;99.90;;;;;;5076227;28;20275;-82
2023/05/05 06:08:30;;;;;;;0.10;0.10;;;16.80;99.90;;;;;;5071568;28;20323;-81
2023/05/05 06:10:55;;;;;;;0.10;0.10;;;16.90;99.90;;;;;;5069604;28;20185;-82
2023/05/05 06:13:21;;;;;;;0.10;0.10;;;17.10;99.90;;;;;;5072477;28;20276;-82
2023/05/05 06:15:46;;;;;;;0.10;0.10;;;17.20;99.90;;;;;;5075034;28;20200;-82
2023/05/05 06:18:12;;;;;;;0.10;0.10;;;17.30;99.90;;;;;;5070777;28;20644;-80
2023/05/05 06:20:38;;;;;;;0.10;0.10;;;17.40;99.90;;;;;;5072254;28;20280;-82
2023/05/05 06:23:03;;;;;;;0.10;0.10;;;17.60;99.90;;;;;;5075672;28;20184;-81
2023/05/05 06:25:29;;;;;;;0.10;0.10;;;17.70;99.90;;;;;;5070230;28;20204;-81
2023/05/05 06:27:54;;;;;;;0.10;0.10;;;17.80;99.90;;;;;;5070368;28;20204;-81
2023/05/05 06:30:20;;;;;;;0.10;0.10;;;17.90;99.90;;;;;;5072995;28;20566;-82
2023/05/05 06:32:45;;;;;;;0.10;0.10;;;18.10;99.90;;;;;;5072168;28;20591;-82
2023/05/05 06:35:11;;;;;;;0.10;0.10;;;18.20;99.90;;;;;;5072129;28;20604;-82
2023/05/05 06:37:37;;;;;;;0.10;0.10;;;18.40;99.90;;;;;;5076183;28;20631;-82
2023/05/05 06:40:03;;;;;;;0.10;0.10;;;18.50;99.90;;;;;;5072828;28;20269;-81
2023/05/05 06:42:30;;;;;;;0.10;0.10;;;18.80;99.90;;;;;;5075392;28;20192;-83
2023/05/05 06:44:56;;;;;;;0.10;0.10;;;18.80;99.90;;;;;;5071559;28;20649;-82
2023/05/05 06:47:22;;;;;;;0.10;0.10;;;19.00;99.90;;;;;;5074382;28;20199;-83
2023/05/05 06:49:47;;;;;;;0.10;0.10;;;19.10;99.90;;;;;;5071674;28;20201;-83
2023/05/05 06:52:13;;;;;;;0.10;0.10;;;19.20;99.90;;;;;;5069685;28;20224;-84
2023/05/05 06:54:38;;;;;;;0.10;0.10;;;19.40;99.90;;;;;;5071075;28;20669;-82
2023/05/05 06:57:04;;;;;;;0.10;0.10;;;19.50;99.90;;;;;;5072218;28;20196;-82
2023/05/05 06:59:29;;;;;;;0.10;0.10;;;19.80;99.90;;;;;;5069289;28;20685;-82
2023/05/05 07:01:55;;;;;;;0.10;0.10;;;20.00;99.90;;;;;;5071072;28;20263;-82
2023/05/05 07:04:20;;;;;;;0.10;0.10;;;20.40;99.90;;;;;;5075592;28;20207;-82
2023/05/05 07:06:46;;;;;;;0.10;0.10;;;20.70;99.90;;;;;;5080154;28;21272;-82
2023/05/05 07:09:11;;;;;;;0.10;0.10;;;20.90;99.90;;;;;;5078066;28;20216;-83
2023/05/05 07:11:37;;;;;;;0.10;0.10;;;20.90;99.90;;;;;;5075215;28;20184;-82
2023/05/05 07:14:02;;;;;;;0.10;0.10;;;20.90;99.90;;;;;;5073147;28;20220;-82
2023/05/05 07:16:28;;;;;;;0.10;0.10;;;20.90;99.90;;;;;;5076675;28;20436;-82
2023/05/05 07:18:53;;;;;;;0.10;0.10;;;20.90;99.90;;;;;;5072435;28;20920;-83
2023/05/05 07:21:19;;;;;;;0.10;0.10;;;21.00;99.90;;;;;;5074846;28;20192;-82
2023/05/05 07:23:46;;;;;;;0.10;0.10;;;21.10;99.90;;;;;;5074337;28;20752;-82
2023/05/05 07:26:12;;;;;;;0.10;0.10;;;21.20;99.90;;;;;;5075000;28;20265;-82
2023/05/05 07:28:38;;;;;;;0.10;0.10;;;21.20;99.90;;;;;;5074226;28;20802;-83
2023/05/05 07:31:03;;;;;;;0.10;0.10;;;21.30;99.90;;;;;;5075247;28;20168;-81
2023/05/05 07:33:29;;;;;;;0.10;0.10;;;21.20;99.90;;;;;;5072383;28;20189;-82
2023/05/05 07:35:55;;;;;;;0.10;0.10;;;21.50;99.90;;;;;;5074365;28;20173;-82
2023/05/05 07:38:20;;;;;;;0.10;0.10;;;21.80;99.90;;;;;;5072297;28;20662;-82
2023/05/05 07:40:46;;;;;;;0.10;0.10;;;21.80;99.90;;;;;;5073189;28;20211;-82
2023/05/05 07:43:11;;;;;;;0.10;0.10;;;21.40;99.90;;;;;;5076021;28;20243;-83
2023/05/05 07:45:37;;;;;;;0.10;0.10;;;21.40;99.90;;;;;;5073185;28;20806;-82
2023/05/05 07:48:02;;;;;;;0.10;0.10;;;21.40;99.90;;;;;;5070440;28;20217;-82
2023/05/05 07:50:28;;;;;;;0.10;0.10;;;21.70;99.90;;;;;;5070837;28;20197;-83
2023/05/05 07:52:53;;;;;;;0.10;0.10;;;21.60;99.90;;;;;;5074853;28;20173;-83
2023/05/05 07:55:19;;;;;;;0.10;0.10;;;21.50;99.90;;;;;;5072898;28;20297;-82
2023/05/05 07:57:44;;;;;;;0.10;0.10;;;20.90;99.90;;;;;;5071785;28;20184;-82
2023/05/05 08:00:12;;;;;;;0.10;0.10;;;20.80;99.90;;;;;;5070328;28;20239;-83
2023/05/05 08:02:37;;;;;;;0.10;0.10;;;21.00;99.90;;;;;;5072112;28;20185;-83
2023/05/05 08:05:03;;;;;;;0.10;0.10;;;21.40;99.90;;;;;;5075620;28;20653;-82
2023/05/05 08:07:29;;;;;;;0.10;0.10;;;21.30;99.90;;;;;;5074371;28;20692;-82
2023/05/05 08:09:54;;;;;;;0.10;0.10;;;21.50;99.90;;;;;;5071265;28;20204;-82
2023/05/05 08:12:20;;;;;;;0.10;0.10;;;21.70;99.90;;;;;;5072772;28;20261;-82
2023/05/05 08:14:45;;;;;;;0.10;0.10;;;22.00;99.90;;;;;;5071428;28;21216;-83
2023/05/05 08:17:11;;;;;;;0.10;0.10;;;22.20;99.90;;;;;;5073540;28;20193;-82
2023/05/05 08:19:36;;;;;;;0.10;0.10;;;22.30;99.90;;;;;;5071842;28;20215;-82
2023/05/05 08:22:02;;;;;;;0.10;0.10;;;22.40;99.90;;;;;;5071563;28;20185;-83
2023/05/05 08:24:27;;;;;;;0.10;0.10;;;22.30;99.90;;;;;;5073273;28;20177;-83
2023/05/05 08:26:54;;;;;;;0.10;0.10;;;22.40;99.90;;;;;;5075417;28;20681;-82
2023/05/05 08:29:20;;;;;;;0.10;0.10;;;22.50;99.90;;;;;;5072116;28;20819;-83
2023/05/05 08:31:45;;;;;;;0.10;0.10;;;22.50;99.90;;;;;;5073482;28;20185;-82
2023/05/05 08:34:10;;;;;;;0.10;0.10;;;22.90;99.90;;;;;;5073606;28;20200;-83
2023/05/05 08:36:36;;;;;;;0.10;0.10;;;23.20;99.90;;;;;;5070360;28;20184;-83
2023/05/05 08:39:02;;;;;;;0.10;0.10;;;23.50;99.90;;;;;;5070976;28;20701;-82
2023/05/05 08:41:27;;;;;;;0.10;0.10;;;23.70;99.90;;;;;;5071099;28;20203;-82
2023/05/05 08:43:53;;;;;;;0.10;0.10;;;23.90;99.90;;;;;;5072865;28;20314;-83
2023/05/05 08:46:19;;;;;;;0.10;0.10;;;24.20;99.90;;;;;;5072740;28;20189;-83
2023/05/05 08:48:44;;;;;;;0.10;0.10;;;24.30;99.90;;;;;;5071931;28;21146;-83
2023/05/05 08:51:15;;;;;;;0.10;0.10;;;24.40;99.90;;;;;;5069608;28;20230;-83
2023/05/05 08:53:57;;;;;;;0.10;0.10;;;24.50;99.90;;;;;;5071964;28;20263;-83
2023/05/05 08:56:35;;;;;;;0.10;0.10;;;24.80;99.90;;;;;;5072451;28;20243;-83
2023/05/05 08:59:01;;;;;;;0.10;0.10;;;24.80;99.90;;;;;;5072866;28;20205;-83
2023/05/05 09:01:28;;;;;;;0.10;0.10;;;24.80;99.90;;;;;;5071128;28;20189;-82
2023/05/05 09:03:55;;;;;;;0.10;0.10;;;24.90;99.90;;;;;;5077642;28;20203;-82
2023/05/05 09:06:24;;;;;;;0.10;0.10;;;25.00;99.90;;;;;;5077542;28;20236;-83
2023/05/05 09:08:50;;;;;;;0.10;0.10;;;25.00;99.90;;;;;;5077352;28;20258;-83
2023/05/05 09:11:16;;;;;;;0.10;0.10;;;25.00;99.90;;;;;;5078091;28;20294;-82
2023/05/05 09:13:42;;;;;;;0.10;0.10;;;25.00;99.90;;;;;;5076648;28;20634;-83
2023/05/05 09:16:08;;;;;;;0.10;0.10;;;25.10;99.90;;;;;;5078271;28;20542;-82
2023/05/05 09:18:36;;;;;;;0.10;0.10;;;25.20;99.90;;;;;;5078636;28;20188;-83
2023/05/05 09:21:18;;;;;;;0.10;0.10;;;25.40;99.90;;;;;;5076161;28;20180;-83
2023/05/05 09:24:05;;;;;;;0.10;0.10;;;25.50;99.90;;;;;;5075281;28;20657;-82
2023/05/05 09:26:35;;;;;;;0.10;0.10;;;25.50;99.90;;;;;;5073647;28;20189;-83
2023/05/05 09:29:02;;;;;;;1.07;1.07;;;25.60;99.90;;;;;;5074727;28;20227;-82
2023/05/05 09:31:32;;;;;;;0.10;0.10;;;25.90;99.90;;;;;;5075656;28;20181;-83
2023/05/05 09:33:59;;;;;;;0.10;0.10;;;26.00;99.90;;;;;;5076308;28;20177;-83
2023/05/05 09:36:48;;;;;;;0.10;0.10;;;25.70;99.90;;;;;;5076757;28;20177;-83
2023/05/05 09:39:18;;;;;;;0.10;0.10;;;25.80;99.90;;;;;;5076467;28;20211;-83
2023/05/05 09:41:44;;;;;;;0.10;0.10;;;26.10;99.90;;;;;;5076457;28;20185;-83
2023/05/05 09:44:11;;;;;;;0.10;0.10;;;26.10;99.90;;;;;;5076395;28;20180;-83
2023/05/05 09:46:37;;;;;;;0.10;0.10;;;26.30;99.90;;;;;;5073406;28;20185;-82
2023/05/05 09:49:18;;;;;;;0.10;0.10;;;26.60;99.90;;;;;;5076076;28;20277;-82
2023/05/05 09:51:44;;;;;;;0.10;0.10;;;26.80;99.90;;;;;;5073601;28;20208;-83
2023/05/05 09:54:27;;;;;;;0.10;0.10;;;26.80;99.90;;;;;;5074375;28;20173;-82
2023/05/05 09:56:54;;;;;;;0.10;0.10;;;26.80;99.90;;;;;;5075275;28;20652;-82
2023/05/05 09:59:20;;;;;;;0.10;0.10;;;27.00;99.90;;;;;;5076098;28;20283;-83
2023/05/05 10:01:47;;;;;;;0.10;0.10;;;27.00;99.90;;;;;;5074092;28;20193;-83
2023/05/05 10:04:27;;;;;;;0.10;0.10;;;26.60;99.90;;;;;;5073226;28;20294;-83
2023/05/05 10:06:57;;;;;;;0.10;0.10;;;27.00;99.90;;;;;;5075408;28;20237;-83
2023/05/05 10:09:24;;;;;;;0.10;0.10;;;26.90;99.90;;;;;;5073859;28;20370;-83
2023/05/05 10:11:50;;;;;;;0.10;0.10;;;27.10;99.90;;;;;;5074459;28;20622;-83
2023/05/05 10:14:16;;;;;;;0.10;0.10;;;27.10;99.90;;;;;;5072753;28;20189;-83
2023/05/05 10:16:47;;;;;;;0.10;0.10;;;27.00;99.90;;;;;;5072556;28;20180;-83
2023/05/05 10:19:15;;;;;;;0.10;0.10;;;27.40;99.90;;;;;;5072174;28;20209;-83
2023/05/05 10:21:45;;;;;;;0.10;0.10;;;27.50;99.90;;;;;;5075533;28;20806;-83
2023/05/05 10:24:31;;;;;;;0.10;0.10;;;27.60;99.90;;;;;;5073988;28;20526;-83
2023/05/05 10:26:58;;;;;;;0.10;0.10;;;27.40;99.90;;;;;;5075835;28;20219;-83
2023/05/05 10:29:49;;;;;;;0.10;0.10;;;27.50;99.90;;;;;;5074814;28;20200;-83
2023/05/05 10:32:28;;;;;;;0.10;0.10;;;27.70;99.90;;;;;;5073087;28;20210;-83
2023/05/05 10:34:58;;;;;;;0.10;0.10;;;27.90;99.90;;;;;;5073178;28;20177;-83
2023/05/05 10:37:24;;;;;;;0.10;0.10;;;27.90;99.90;;;;;;5075233;28;20250;-83
2023/05/05 10:39:51;;;;;;;0.10;0.10;;;27.60;99.90;;;;;;5073391;28;20208;-83
2023/05/05 10:42:18;;;;;;;0.10;0.10;;;27.80;99.90;;;;;;5074009;28;20189;-83
2023/05/05 10:44:44;;;;;;;0.10;0.10;;;27.70;99.90;;;;;;5074130;28;20654;-83
2023/05/05 10:47:10;;;;;;;0.10;0.10;;;27.70;99.90;;;;;;5072147;28;20231;-82
2023/05/05 10:49:49;;;;;;;0.10;0.10;;;27.60;99.90;;;;;;5072934;28;20630;-83
2023/05/05 10:52:36;;;;;;;0.10;0.10;;;27.80;99.90;;;;;;5075049;28;20177;-83
2023/05/05 10:55:12;;;;;;;0.10;0.10;;;27.70;99.90;;;;;;5072292;28;20184;-83
2023/05/05 10:57:43;;;;;;;0.10;0.10;;;27.40;99.90;;;;;;5074082;28;20180;-83
2023/05/05 11:00:30;;;;;;;0.10;0.10;;;27.30;99.90;;;;;;5073901;28;20209;-83
2023/05/05 11:03:17;;;;;;;0.10;0.10;;;27.40;99.90;;;;;;5076741;28;20209;-83
2023/05/05 11:06:08;;;;;;;0.10;0.10;;;28.00;99.90;;;;;;5076842;28;20187;-82
2023/05/05 11:08:43;;;;;;;0.10;0.10;;;27.90;99.90;;;;;;5074425;28;20204;-83
2023/05/05 11:11:10;;;;;;;0.10;0.10;;;27.50;99.90;;;;;;5075983;28;20168;-83
2023/05/05 11:13:37;;;;;;;0.10;0.10;;;27.30;99.90;;;;;;5070751;28;20219;-83
2023/05/05 11:16:04;;;;;;;0.10;0.10;;;27.50;99.90;;;;;;5073485;28;20332;-83
2023/05/05 11:18:34;;;;;;;0.10;0.10;;;27.40;99.90;;;;;;5072481;28;20176;-83
2023/05/05 11:21:00;;;;;;;0.10;0.10;;;27.40;99.90;;;;;;5073947;28;20185;-83
2023/05/05 11:23:26;;;;;;;0.10;0.10;;;27.30;99.90;;;;;;5074873;28;20242;-83
2023/05/05 11:25:52;;;;;;;0.10;0.10;;;27.20;99.90;;;;;;5075770;28;20187;-82
2023/05/05 11:28:24;;;;;;;0.10;0.10;;;27.40;99.90;;;;;;5075282;28;20212;-82
2023/05/05 11:30:56;;;;;;;0.95;0.95;;;27.30;99.90;;;;;;5072184;28;20220;-83
2023/05/05 11:33:27;;;;;;;0.10;0.10;;;27.70;99.90;;;;;;5073237;28;20220;-83
2023/05/05 11:35:57;;;;;;;0.10;0.10;;;27.70;99.90;;;;;;5076051;28;20187;-83
2023/05/05 11:38:47;;;;;;;0.10;0.10;;;27.60;99.90;;;;;;5072543;28;20669;-82
2023/05/05 11:41:15;;;;;;;0.10;0.10;;;27.70;99.90;;;;;;5074197;28;20672;-82
2023/05/05 11:43:41;;;;;;;0.10;0.10;;;27.90;99.90;;;;;;5075413;28;20196;-83
2023/05/05 11:46:14;;;;;;;0.10;0.10;;;27.90;99.90;;;;;;5074894;28;20228;-82
2023/05/05 11:48:46;;;;;;;0.10;0.10;;;27.80;99.90;;;;;;5073106;28;20634;-83
2023/05/05 11:51:12;;;;;;;0.10;0.10;;;28.00;99.90;;;;;;5072287;28;20168;-83
2023/05/05 11:53:46;;;;;;;0.10;0.10;;;27.80;99.90;;;;;;5070313;28;20299;-83
2023/05/05 11:56:21;;;;;;;0.10;0.10;;;27.80;99.90;;;;;;5074188;28;20295;-83
2023/05/05 11:59:09;;;;;;;0.10;0.10;;;27.60;99.90;;;;;;5071833;28;20184;-83
2023/05/05 12:01:39;;;;;;;0.10;0.10;;;27.30;99.90;;;;;;5073371;28;20192;-83
2023/05/05 12:04:05;;;;;;;0.10;0.10;;;27.10;99.90;;;;;;5073287;28;20205;-83
2023/05/05 12:06:32;;;;;;;0.10;0.10;;;26.60;99.90;;;;;;5072830;28;20262;-82
2023/05/05 12:08:58;;;;;;;0.10;0.10;;;26.60;99.90;;;;;;5072548;28;20233;-82
2023/05/05 12:11:24;;;;;;;0.10;0.10;;;26.60;99.90;;;;;;5073830;28;20629;-83
2023/05/05 12:13:49;;;;;;;0.10;0.10;;;26.60;99.90;;;;;;5073758;28;20184;-82
2023/05/05 12:16:15;;;;;;;0.10;0.10;;;26.80;99.90;;;;;;5071598;28;20188;-82
2023/05/05 12:18:41;;;;;;;0.10;0.10;;;26.70;99.90;;;;;;5073177;28;20180;-83
2023/05/05 12:21:17;;;;;;;0.10;0.10;;;26.70;99.90;;;;;;5074295;28;20188;-82
2023/05/05 12:23:42;;;;;;;0.10;0.10;;;26.80;99.90;;;;;;5077076;28;20653;-82
2023/05/05 12:26:24;;;;;;;0.10;0.10;;;26.90;99.90;;;;;;5076370;28;20200;-82
2023/05/05 12:28:50;;;;;;;0.10;0.10;;;26.90;99.90;;;;;;5073109;28;20315;-82
2023/05/05 12:31:15;;;;;;;0.50;0.50;;;26.90;99.90;;;;;;5073776;28;20272;-82
2023/05/05 12:33:41;;;;;;;0.10;0.10;;;26.60;99.90;;;;;;5076091;28;20330;-83
2023/05/05 12:36:08;;;;;;;0.10;0.10;;;26.60;99.90;;;;;;5075028;28;20176;-83
2023/05/05 12:38:37;;;;;;;0.10;0.10;;;26.50;99.90;;;;;;5071387;28;20193;-83
2023/05/05 12:41:03;;;;;;;0.10;0.10;;;26.90;99.90;;;;;;5075214;28;20176;-83
2023/05/05 12:43:33;;;;;;;0.10;0.10;;;27.30;99.90;;;;;;5073276;28;20211;-83
2023/05/05 12:46:04;;;;;;;0.10;0.10;;;27.10;99.90;;;;;;5074674;28;20655;-83
2023/05/05 12:48:29;;;;;;;0.10;0.10;;;27.20;99.90;;;;;;5075185;28;20221;-83
2023/05/05 12:51:09;;;;;;;0.10;0.10;;;27.20;99.90;;;;;;5072651;28;20539;-82
2023/05/05 12:53:35;;;;;;;0.10;0.10;;;26.90;99.90;;;;;;5073493;28;20177;-83
2023/05/05 12:56:00;;;;;;;0.10;0.10;;;26.80;99.90;;;;;;5071295;28;20181;-83